Time;durP1;ratioP1;P1;durP2;ratioP2;P2;SDS_P1;SDS_P2;PMS_P1;PMS_P2;Temp;Humidity;BMP_temperature;BMP_pressure;BME280_temperature;BME280_humidity;BME280_pressure;Samples;Min_cycle;Max_cycle;Signal;HPM_P1;HPM_P2
2023/02/10 00:02:14;;;;;;;33.10;4.53;;;;;;;;;;5101251;28;20052;-68
2023/02/10 00:04:40;;;;;;;39.97;4.85;;;;;;;;;;5097438;28;20054;-68
2023/02/10 00:07:07;;;;;;;32.90;5.43;;;;;;;;;;5099450;28;20051;-68
2023/02/10 00:09:33;;;;;;;35.78;4.88;;;;;;;;;;5098710;28;20039;-68
2023/02/10 00:11:59;;;;;;;24.38;5.43;;;;;;;;;;5099565;28;20179;-68
2023/02/10 00:14:26;;;;;;;22.20;4.53;;;;;;;;;;5099319;28;20055;-68
2023/02/10 00:16:52;;;;;;;35.40;5.35;;;;;;;;;;5098103;28;20046;-68
2023/02/10 00:19:21;;;;;;;30.17;7.45;;;;;;;;;;5101380;28;20035;-68
2023/02/10 00:21:47;;;;;;;36.10;6.53;;;;;;;;;;5097086;28;20541;-68
2023/02/10 00:24:13;;;;;;;31.60;5.35;;;;;;;;;;5097369;28;20039;-68
2023/02/10 00:26:39;;;;;;;32.92;6.18;;;;;;;;;;5099403;28;20435;-68
2023/02/10 00:29:05;;;;;;;33.60;5.60;;;;;;;;;;5097780;28;20422;-68
2023/02/10 00:31:32;;;;;;;29.42;5.35;;;;;;;;;;5066895;28;20127;-68
2023/02/10 00:33:58;;;;;;;36.78;6.05;;;;;;;;;;5099235;28;20066;-68
2023/02/10 00:36:24;;;;;;;42.30;6.68;;;;;;;;;;5080517;28;20052;-68
2023/02/10 00:38:51;;;;;;;39.53;6.38;;;;;;;;;;5075899;28;20040;-68
2023/02/10 00:41:18;;;;;;;36.05;6.00;;;;;;;;;;5094977;28;20186;-68
2023/02/10 00:43:45;;;;;;;29.67;6.88;;;;;;;;;;5093660;28;20053;-68
2023/02/10 00:46:11;;;;;;;33.53;5.95;;;;;;;;;;5095308;28;20437;-68
2023/02/10 00:48:38;;;;;;;29.75;6.07;;;;;;;;;;5094805;28;20047;-68
2023/02/10 00:51:04;;;;;;;23.63;4.63;;;;;;;;;;5097921;28;20048;-68
2023/02/10 00:53:31;;;;;;;28.15;7.38;;;;;;;;;;5078741;28;20143;-68
2023/02/10 00:55:57;;;;;;;48.45;7.75;;;;;;;;;;5094687;28;20366;-68
2023/02/10 00:58:23;;;;;;;33.17;6.05;;;;;;;;;;5076610;28;20039;-68
2023/02/10 01:00:50;;;;;;;39.30;6.32;;;;;;;;;;5096927;28;20039;-67
2023/02/10 01:03:16;;;;;;;35.53;6.18;;;;;;;;;;5099190;28;20374;-68
2023/02/10 01:05:42;;;;;;;31.50;5.32;;;;;;;;;;5098911;28;20047;-67
2023/02/10 01:08:08;;;;;;;39.78;6.40;;;;;;;;;;5103384;28;20460;-67
2023/02/10 01:10:35;;;;;;;30.05;5.10;;;;;;;;;;5099312;28;20044;-68
2023/02/10 01:13:02;;;;;;;40.47;6.30;;;;;;;;;;5096090;28;20044;-67
2023/02/10 01:15:28;;;;;;;34.58;6.05;;;;;;;;;;5095469;28;20040;-69
2023/02/10 01:17:54;;;;;;;37.17;5.88;;;;;;;;;;5094602;28;20544;-68
2023/02/10 01:20:20;;;;;;;24.55;6.05;;;;;;;;;;5094588;28;20722;-68
2023/02/10 01:22:47;;;;;;;35.17;5.72;;;;;;;;;;5095876;28;20071;-68
2023/02/10 01:25:13;;;;;;;32.17;5.45;;;;;;;;;;5096582;28;20043;-68
2023/02/10 01:27:39;;;;;;;36.50;5.72;;;;;;;;;;5093365;28;20051;-68
2023/02/10 01:30:05;;;;;;;38.40;6.63;;;;;;;;;;5076761;28;20056;-68
2023/02/10 01:32:31;;;;;;;28.75;6.78;;;;;;;;;;5095780;28;20403;-68
2023/02/10 01:34:58;;;;;;;32.13;7.75;;;;;;;;;;5094184;28;20471;-69
2023/02/10 01:37:24;;;;;;;44.85;8.93;;;;;;;;;;5090723;28;20185;-68
2023/02/10 01:39:50;;;;;;;36.42;6.60;;;;;;;;;;5031921;28;1128788;-68
2023/02/10 01:42:16;;;;;;;37.72;8.73;;;;;;;;;;5076224;28;20050;-68
2023/02/10 01:44:43;;;;;;;29.95;5.95;;;;;;;;;;5077797;28;20502;-68
2023/02/10 01:47:09;;;;;;;50.70;9.20;;;;;;;;;;5078606;28;20063;-68
2023/02/10 01:49:40;;;;;;;37.13;7.38;;;;;;;;;;5079279;28;20044;-68
2023/02/10 01:52:08;;;;;;;34.72;5.50;;;;;;;;;;5094660;28;20043;-69
2023/02/10 01:54:42;;;;;;;31.80;5.43;;;;;;;;;;5094291;28;20071;-68
2023/02/10 01:57:09;;;;;;;27.38;5.85;;;;;;;;;;5095048;28;20040;-68
2023/02/10 01:59:36;;;;;;;25.60;5.05;;;;;;;;;;5097022;28;20032;-68
2023/02/10 02:02:06;;;;;;;36.42;6.68;;;;;;;;;;5095082;28;20044;-68
2023/02/10 02:04:37;;;;;;;26.30;6.20;;;;;;;;;;5094610;28;20096;-68
2023/02/10 02:07:04;;;;;;;30.90;6.53;;;;;;;;;;5096648;28;20539;-68
2023/02/10 02:09:30;;;;;;;35.17;6.88;;;;;;;;;;5095675;28;20097;-68
2023/02/10 02:12:22;;;;;;;25.88;5.75;;;;;;;;;;5099245;28;20423;-68
2023/02/10 02:14:53;;;;;;;42.35;7.60;;;;;;;;;;5076525;28;20109;-68
2023/02/10 02:17:26;;;;;;;40.25;6.20;;;;;;;;;;5095309;28;20055;-68
2023/02/10 02:20:40;;;;;;;28.13;6.90;;;;;;;;;;5095729;28;20039;-68
2023/02/10 02:22:50;;;;;;;30.30;5.70;;;;;;;;;;5095726;28;20077;-68
2023/02/10 02:25:41;;;;;;;29.88;5.65;;;;;;;;;;5095175;28;20047;-68
2023/02/10 02:28:42;;;;;;;35.05;5.68;;;;;;;;;;5076930;28;20069;-68
2023/02/10 02:31:27;;;;;;;32.38;6.05;;;;;;;;;;5077349;28;20067;-68
2023/02/10 02:33:56;;;;;;;37.90;6.78;;;;;;;;;;5095765;28;20131;-68
2023/02/10 02:36:26;;;;;;;31.17;6.00;;;;;;;;;;5093709;28;20063;-68
2023/02/10 02:38:58;;;;;;;30.83;5.60;;;;;;;;;;5079306;28;20043;-67
2023/02/10 02:41:25;;;;;;;33.45;6.30;;;;;;;;;;5096724;28;20088;-67
2023/02/10 02:43:51;;;;;;;37.40;6.22;;;;;;;;;;5077460;28;20544;-68
2023/02/10 02:46:25;;;;;;;34.60;7.45;;;;;;;;;;5097765;28;20040;-68
2023/02/10 02:49:09;;;;;;;30.42;6.53;;;;;;;;;;5095474;28;20471;-68
2023/02/10 02:51:40;;;;;;;39.47;6.43;;;;;;;;;;5098766;28;21376;-68
2023/02/10 02:54:12;;;;;;;26.63;6.15;;;;;;;;;;5092211;28;20403;-68
2023/02/10 02:56:44;;;;;;;37.30;6.50;;;;;;;;;;5083483;28;20056;-68
2023/02/10 02:59:21;;;;;;;33.35;6.65;;;;;;;;;;5100693;28;20051;-68
2023/02/10 03:01:51;;;;;;;41.00;6.68;;;;;;;;;;5097527;28;20503;-68
2023/02/10 03:04:18;;;;;;;30.20;6.82;;;;;;;;;;5094580;28;20398;-68
2023/02/10 03:06:44;;;;;;;29.52;7.90;;;;;;;;;;5098628;28;20131;-68
2023/02/10 03:09:10;;;;;;;41.85;7.95;;;;;;;;;;5096007;28;20086;-67
2023/02/10 03:11:37;;;;;;;37.60;7.20;;;;;;;;;;5093754;28;20433;-67
2023/02/10 03:14:03;;;;;;;34.65;6.47;;;;;;;;;;5095343;28;20055;-68
2023/02/10 03:16:29;;;;;;;37.47;6.57;;;;;;;;;;5096297;28;20040;-68
2023/02/10 03:18:55;;;;;;;30.60;6.57;;;;;;;;;;5094629;28;20039;-68
2023/02/10 03:21:21;;;;;;;29.80;7.07;;;;;;;;;;5096713;28;20124;-68
2023/02/10 03:23:47;;;;;;;39.22;6.13;;;;;;;;;;5095783;28;20093;-68
2023/02/10 03:26:14;;;;;;;35.92;7.20;;;;;;;;;;5095482;28;20035;-69
2023/02/10 03:28:40;;;;;;;31.58;6.72;;;;;;;;;;5094787;28;20220;-68
2023/02/10 03:31:07;;;;;;;38.28;6.78;;;;;;;;;;5094911;28;20041;-70
2023/02/10 03:33:34;;;;;;;26.52;6.93;;;;;;;;;;5081067;28;20164;-68
2023/02/10 03:36:00;;;;;;;35.65;6.40;;;;;;;;;;5097335;28;20354;-68
2023/02/10 03:38:27;;;;;;;35.10;7.25;;;;;;;;;;5092927;28;20039;-68
2023/02/10 03:40:54;;;;;;;34.25;6.57;;;;;;;;;;5091413;28;20412;-69
2023/02/10 03:43:21;;;;;;;33.67;7.28;;;;;;;;;;5094857;28;20075;-68
2023/02/10 03:45:47;;;;;;;35.70;7.78;;;;;;;;;;5094347;28;20422;-69
2023/02/10 03:48:15;;;;;;;34.95;7.97;;;;;;;;;;5098377;28;20069;-68
2023/02/10 03:50:41;;;;;;;36.10;8.85;;;;;;;;;;5078181;28;20070;-69
2023/02/10 03:53:08;;;;;;;40.17;8.82;;;;;;;;;;5090955;28;20044;-68
2023/02/10 03:55:34;;;;;;;38.83;7.43;;;;;;;;;;5074297;28;20046;-68
2023/02/10 03:58:01;;;;;;;27.77;7.85;;;;;;;;;;5095102;28;20224;-68
2023/02/10 04:00:27;;;;;;;34.15;8.20;;;;;;;;;;5077415;28;20483;-68
2023/02/10 04:02:54;;;;;;;41.65;8.90;;;;;;;;;;5095996;28;20060;-69
2023/02/10 04:05:20;;;;;;;48.28;8.85;;;;;;;;;;5093761;28;20457;-69
2023/02/10 04:07:46;;;;;;;32.53;8.07;;;;;;;;;;5094110;28;20053;-68
2023/02/10 04:10:12;;;;;;;28.80;7.97;;;;;;;;;;5075119;28;20143;-68
2023/02/10 04:12:38;;;;;;;38.83;8.68;;;;;;;;;;5074335;28;20518;-68
2023/02/10 04:15:05;;;;;;;35.22;7.57;;;;;;;;;;5098620;28;20490;-68
2023/02/10 04:17:32;;;;;;;44.97;7.93;;;;;;;;;;5098916;28;20066;-68
2023/02/10 04:19:58;;;;;;;35.33;8.07;;;;;;;;;;5077608;28;20506;-68
2023/02/10 04:22:24;;;;;;;33.08;7.95;;;;;;;;;;5096787;28;20126;-68
2023/02/10 04:24:50;;;;;;;36.40;8.93;;;;;;;;;;5095732;28;20427;-68
2023/02/10 04:27:17;;;;;;;38.63;8.23;;;;;;;;;;5096296;28;20043;-68
2023/02/10 04:29:43;;;;;;;54.67;10.38;;;;;;;;;;5076527;28;20109;-67
2023/02/10 04:32:09;;;;;;;40.72;8.23;;;;;;;;;;5093881;28;20071;-67
2023/02/10 04:34:35;;;;;;;46.50;8.68;;;;;;;;;;5097405;28;20100;-67
2023/02/10 04:37:01;;;;;;;43.80;10.50;;;;;;;;;;5079278;28;20501;-67
2023/02/10 04:39:28;;;;;;;39.80;8.68;;;;;;;;;;5099064;28;20047;-68
2023/02/10 04:41:54;;;;;;;45.10;9.73;;;;;;;;;;5095409;28;20123;-68
2023/02/10 04:44:20;;;;;;;48.58;9.25;;;;;;;;;;5080076;28;20407;-68
2023/02/10 04:46:47;;;;;;;47.08;9.35;;;;;;;;;;5098490;28;20035;-68
2023/02/10 04:49:13;;;;;;;47.03;8.80;;;;;;;;;;5082940;28;20044;-68
2023/02/10 04:51:39;;;;;;;40.13;9.07;;;;;;;;;;5101900;28;20095;-68
2023/02/10 04:54:06;;;;;;;49.10;9.00;;;;;;;;;;5098681;28;20039;-68
2023/02/10 04:56:32;;;;;;;49.08;9.00;;;;;;;;;;5095162;28;20093;-68
2023/02/10 04:58:58;;;;;;;49.00;9.18;;;;;;;;;;5096749;28;20067;-68
2023/02/10 05:01:24;;;;;;;44.88;9.57;;;;;;;;;;5098627;28;20062;-68
2023/02/10 05:03:50;;;;;;;38.45;10.27;;;;;;;;;;5074174;28;20056;-68
2023/02/10 05:06:16;;;;;;;44.05;9.07;;;;;;;;;;5082190;28;20051;-68
2023/02/10 05:08:43;;;;;;;37.92;8.15;;;;;;;;;;5081808;28;20036;-68
2023/02/10 05:11:11;;;;;;;34.88;7.95;;;;;;;;;;5094340;28;21043;-68
2023/02/10 05:13:38;;;;;;;35.25;8.38;;;;;;;;;;5097378;28;20048;-68
2023/02/10 05:16:04;;;;;;;36.65;8.38;;;;;;;;;;5096073;28;20035;-68
2023/02/10 05:18:30;;;;;;;36.13;8.88;;;;;;;;;;5097439;28;20054;-67
2023/02/10 05:20:57;;;;;;;42.47;8.55;;;;;;;;;;5096381;28;20578;-68
2023/02/10 05:23:23;;;;;;;38.08;8.23;;;;;;;;;;5095624;28;20040;-69
2023/02/10 05:25:50;;;;;;;38.92;7.95;;;;;;;;;;5095901;28;20031;-68
2023/02/10 05:28:16;;;;;;;44.88;9.73;;;;;;;;;;5096361;28;20116;-68
2023/02/10 05:30:42;;;;;;;34.72;8.68;;;;;;;;;;5078071;28;21249;-68
2023/02/10 05:33:08;;;;;;;43.10;9.43;;;;;;;;;;5098704;28;20042;-68
2023/02/10 05:35:34;;;;;;;38.92;8.90;;;;;;;;;;5095037;28;20044;-68
2023/02/10 05:38:01;;;;;;;27.83;8.23;;;;;;;;;;5094860;28;20158;-68
2023/02/10 05:40:28;;;;;;;34.55;8.82;;;;;;;;;;5097354;28;20051;-68
2023/02/10 05:42:54;;;;;;;43.65;10.38;;;;;;;;;;5095857;28;20368;-68
2023/02/10 05:45:21;;;;;;;45.17;9.55;;;;;;;;;;5093605;28;20047;-68
2023/02/10 05:47:47;;;;;;;59.50;9.75;;;;;;;;;;5078208;28;20557;-68
2023/02/10 05:50:13;;;;;;;50.10;10.10;;;;;;;;;;5092685;28;20128;-68
2023/02/10 05:52:40;;;;;;;34.88;9.55;;;;;;;;;;5078342;28;20130;-69
2023/02/10 05:55:06;;;;;;;38.92;10.20;;;;;;;;;;5093500;28;20047;-68
2023/02/10 05:57:32;;;;;;;47.22;10.23;;;;;;;;;;5097054;28;20419;-68
2023/02/10 05:59:59;;;;;;;46.65;11.32;;;;;;;;;;5076979;28;20156;-68
2023/02/10 06:02:25;;;;;;;42.53;10.30;;;;;;;;;;5095652;28;20055;-69
2023/02/10 06:04:51;;;;;;;46.17;10.73;;;;;;;;;;5078454;28;20506;-69
2023/02/10 06:07:17;;;;;;;46.85;11.00;;;;;;;;;;5097215;28;20036;-69
2023/02/10 06:09:44;;;;;;;44.35;11.35;;;;;;;;;;5096108;28;20059;-69
2023/02/10 06:12:10;;;;;;;42.15;11.18;;;;;;;;;;5093860;28;20143;-69
2023/02/10 06:14:37;;;;;;;47.70;12.07;;;;;;;;;;5093072;28;20039;-70
2023/02/10 06:17:08;;;;;;;56.22;13.00;;;;;;;;;;5097905;28;20147;-68
2023/02/10 06:19:36;;;;;;;37.33;10.52;;;;;;;;;;5094135;28;20411;-69
2023/02/10 06:22:02;;;;;;;43.63;10.90;;;;;;;;;;5095603;28;20040;-69
2023/02/10 06:24:28;;;;;;;40.55;11.43;;;;;;;;;;5073483;28;20462;-69
2023/02/10 06:26:55;;;;;;;46.17;11.13;;;;;;;;;;5078373;28;20048;-69
2023/02/10 06:29:21;;;;;;;39.97;12.55;;;;;;;;;;5073249;28;20047;-69
2023/02/10 06:31:47;;;;;;;44.83;12.43;;;;;;;;;;5080767;28;20048;-69
2023/02/10 06:34:13;;;;;;;44.85;12.15;;;;;;;;;;5093818;28;20032;-69
2023/02/10 06:36:39;;;;;;;64.60;12.32;;;;;;;;;;5079516;28;20050;-70
2023/02/10 06:39:06;;;;;;;49.80;13.00;;;;;;;;;;5099212;28;20391;-70
2023/02/10 06:41:33;;;;;;;46.80;13.50;;;;;;;;;;5096692;28;20502;-70
2023/02/10 06:43:59;;;;;;;49.10;12.35;;;;;;;;;;5074949;28;20055;-70
2023/02/10 06:46:26;;;;;;;57.38;13.40;;;;;;;;;;5094597;28;20032;-69
2023/02/10 06:48:52;;;;;;;59.88;14.27;;;;;;;;;;5095819;28;20040;-69
2023/02/10 06:51:18;;;;;;;42.50;14.70;;;;;;;;;;5059287;28;20100;-70
2023/02/10 06:53:45;;;;;;;51.97;13.07;;;;;;;;;;5097033;28;20044;-72
2023/02/10 06:56:11;;;;;;;56.78;13.60;;;;;;;;;;5090089;28;20059;-69
2023/02/10 06:58:38;;;;;;;60.88;14.20;;;;;;;;;;5091327;28;20395;-70
2023/02/10 07:01:09;;;;;;;53.17;14.23;;;;;;;;;;5093646;28;20126;-70
2023/02/10 07:03:35;;;;;;;47.05;14.20;;;;;;;;;;5099319;28;20046;-71
2023/02/10 07:06:01;;;;;;;51.95;13.90;;;;;;;;;;5098376;28;20123;-70
2023/02/10 07:08:28;;;;;;;47.00;14.88;;;;;;;;;;5096323;28;20043;-70
2023/02/10 07:10:54;;;;;;;51.25;15.18;;;;;;;;;;5095983;28;21447;-70
2023/02/10 07:13:20;;;;;;;42.22;14.50;;;;;;;;;;5079686;28;20092;-70
2023/02/10 07:15:46;;;;;;;57.33;14.98;;;;;;;;;;5074173;28;20162;-70
2023/02/10 07:18:13;;;;;;;50.03;15.63;;;;;;;;;;5072146;28;20075;-70
2023/02/10 07:20:39;;;;;;;53.53;16.25;;;;;;;;;;5073135;28;20480;-71
2023/02/10 07:23:06;;;;;;;57.33;15.32;;;;;;;;;;5075594;28;20143;-71
2023/02/10 07:25:32;;;;;;;51.00;16.48;;;;;;;;;;5073223;28;20055;-71
2023/02/10 07:27:58;;;;;;;62.60;17.60;;;;;;;;;;5074424;28;20046;-70
2023/02/10 07:30:25;;;;;;;59.65;17.65;;;;;;;;;;5093346;28;20051;-71
2023/02/10 07:32:51;;;;;;;50.85;15.55;;;;;;;;;;5095833;28;20052;-71
2023/02/10 07:35:17;;;;;;;60.40;16.20;;;;;;;;;;5093320;28;20070;-69
2023/02/10 07:37:43;;;;;;;53.88;16.95;;;;;;;;;;5075329;28;20047;-70
2023/02/10 07:40:10;;;;;;;62.10;17.55;;;;;;;;;;5092306;28;20040;-70
2023/02/10 07:42:36;;;;;;;59.22;18.00;;;;;;;;;;5092719;28;20114;-70
2023/02/10 07:45:03;;;;;;;49.58;17.73;;;;;;;;;;5092782;28;20048;-70
2023/02/10 07:47:29;;;;;;;56.17;19.35;;;;;;;;;;5073108;28;20400;-70
2023/02/10 07:49:55;;;;;;;54.25;16.75;;;;;;;;;;5092178;28;20336;-70
2023/02/10 07:52:22;;;;;;;53.50;16.88;;;;;;;;;;5090260;28;20138;-70
2023/02/10 07:54:48;;;;;;;52.22;17.73;;;;;;;;;;5093041;28;20036;-70
2023/02/10 07:57:15;;;;;;;50.83;17.05;;;;;;;;;;5077362;28;20370;-70
2023/02/10 07:59:41;;;;;;;46.45;16.08;;;;;;;;;;5093600;28;20563;-70
2023/02/10 08:02:09;;;;;;;49.92;16.15;;;;;;;;;;5073602;28;20050;-70
2023/02/10 08:04:35;;;;;;;53.55;16.85;;;;;;;;;;5092483;28;20113;-70
2023/02/10 08:07:01;;;;;;;43.67;15.50;;;;;;;;;;5092657;28;20044;-70
2023/02/10 08:09:28;;;;;;;48.53;16.88;;;;;;;;;;5095546;28;20036;-70
2023/02/10 08:11:55;;;;;;;59.20;18.08;;;;;;;;;;5098313;28;20052;-71
2023/02/10 08:14:21;;;;;;;50.55;16.02;;;;;;;;;;5095884;28;20046;-71
2023/02/10 08:16:48;;;;;;;54.28;16.48;;;;;;;;;;5095385;28;20047;-69
2023/02/10 08:19:14;;;;;;;38.65;14.93;;;;;;;;;;5096807;28;20130;-70
2023/02/10 08:21:41;;;;;;;45.17;14.82;;;;;;;;;;5095929;28;20043;-69
2023/02/10 08:24:08;;;;;;;50.95;16.65;;;;;;;;;;5080705;28;20048;-70
2023/02/10 08:26:34;;;;;;;46.90;15.45;;;;;;;;;;5099882;28;20039;-70
2023/02/10 08:29:01;;;;;;;54.08;15.25;;;;;;;;;;5097968;28;20057;-70
2023/02/10 08:31:27;;;;;;;57.90;16.90;;;;;;;;;;5084326;28;20105;-69
2023/02/10 08:33:54;;;;;;;50.55;15.07;;;;;;;;;;5096896;28;20374;-71
2023/02/10 08:36:21;;;;;;;48.63;15.25;;;;;;;;;;5082656;28;20036;-70
2023/02/10 08:38:47;;;;;;;52.58;15.30;;;;;;;;;;5100926;28;20040;-72
2023/02/10 08:41:14;;;;;;;47.13;14.85;;;;;;;;;;5098958;28;20056;-68
2023/02/10 08:43:40;;;;;;;49.80;15.77;;;;;;;;;;5081765;28;20368;-69
2023/02/10 08:46:06;;;;;;;45.30;14.60;;;;;;;;;;5079197;28;20044;-70
2023/02/10 08:48:33;;;;;;;36.95;15.40;;;;;;;;;;5091291;28;20373;-70
2023/02/10 08:51:00;;;;;;;56.60;14.95;;;;;;;;;;5094300;28;20448;-71
2023/02/10 08:53:26;;;;;;;48.80;13.98;;;;;;;;;;5096627;28;20032;-69
2023/02/10 08:55:59;;;;;;;43.67;15.85;;;;;;;;;;5093407;28;20097;-70
2023/02/10 08:58:26;;;;;;;41.85;13.10;;;;;;;;;;5095305;28;20071;-70
2023/02/10 09:00:52;;;;;;;37.17;14.55;;;;;;;;;;5079059;28;20042;-70
2023/02/10 09:03:18;;;;;;;43.80;15.63;;;;;;;;;;5094771;28;20055;-71
2023/02/10 09:05:45;;;;;;;46.75;15.48;;;;;;;;;;5094634;28;20047;-70
2023/02/10 09:08:12;;;;;;;49.97;15.32;;;;;;;;;;5096261;28;20119;-71
2023/02/10 09:10:40;;;;;;;56.60;16.50;;;;;;;;;;5078767;28;20055;-71
2023/02/10 09:13:08;;;;;;;45.42;16.10;;;;;;;;;;5077557;28;20059;-70
2023/02/10 09:15:36;;;;;;;44.35;14.50;;;;;;;;;;5077923;28;20109;-71
2023/02/10 09:18:03;;;;;;;46.03;16.25;;;;;;;;;;5094659;28;20079;-71
2023/02/10 09:20:29;;;;;;;47.00;15.65;;;;;;;;;;5096599;28;20475;-71
2023/02/10 09:22:55;;;;;;;43.53;16.30;;;;;;;;;;5095193;28;20153;-71
2023/02/10 09:25:21;;;;;;;44.50;14.77;;;;;;;;;;5096936;28;20100;-71
2023/02/10 09:27:48;;;;;;;35.50;13.18;;;;;;;;;;5063105;28;20044;-71
2023/02/10 09:30:14;;;;;;;37.97;12.02;;;;;;;;;;5078411;28;20048;-71
2023/02/10 09:32:40;;;;;;;39.50;13.77;;;;;;;;;;5094804;28;20044;-71
2023/02/10 09:35:06;;;;;;;48.72;13.85;;;;;;;;;;5078971;28;20052;-71
2023/02/10 09:37:33;;;;;;;47.40;14.90;;;;;;;;;;5095504;28;20530;-71
2023/02/10 09:39:59;;;;;;;37.35;11.73;;;;;;;;;;5094991;28;20459;-71
2023/02/10 09:42:29;;;;;;;29.80;10.75;;;;;;;;;;5094565;28;20074;-71
2023/02/10 09:44:59;;;;;;;41.55;12.32;;;;;;;;;;5093457;28;20480;-71
2023/02/10 09:47:32;;;;;;;35.47;11.88;;;;;;;;;;5100221;28;20059;-70
2023/02/10 09:50:09;;;;;;;35.50;11.90;;;;;;;;;;5103753;28;20463;-71
2023/02/10 09:52:44;;;;;;;34.53;11.57;;;;;;;;;;5093711;28;20040;-69
2023/02/10 09:55:21;;;;;;;42.00;12.10;;;;;;;;;;5099539;28;20044;-70
2023/02/10 09:57:51;;;;;;;31.38;10.57;;;;;;;;;;5097860;28;20411;-71
2023/02/10 10:00:27;;;;;;;39.58;9.90;;;;;;;;;;5080451;28;20503;-70
2023/02/10 10:02:55;;;;;;;37.60;10.95;;;;;;;;;;5080104;28;20044;-71
2023/02/10 10:05:38;;;;;;;36.60;11.18;;;;;;;;;;5078957;28;20055;-71
2023/02/10 10:08:08;;;;;;;35.95;10.38;;;;;;;;;;5077092;28;20044;-71
2023/02/10 10:10:40;;;;;;;38.67;12.13;;;;;;;;;;5079863;28;20391;-70
2023/02/10 10:13:14;;;;;;;37.45;9.65;;;;;;;;;;5099080;28;20087;-70
2023/02/10 10:15:45;;;;;;;23.35;8.20;;;;;;;;;;5096174;28;20083;-69
2023/02/10 10:18:21;;;;;;;30.75;9.40;;;;;;;;;;5091914;28;20040;-70
2023/02/10 10:20:54;;;;;;;43.38;8.77;;;;;;;;;;5074043;28;20126;-69
2023/02/10 10:23:21;;;;;;;30.52;8.63;;;;;;;;;;5095842;28;20043;-69
2023/02/10 10:25:54;;;;;;;35.03;8.55;;;;;;;;;;5100437;28;20044;-70
2023/02/10 10:28:20;;;;;;;32.67;9.07;;;;;;;;;;5100569;28;20127;-69
2023/02/10 10:30:55;;;;;;;32.35;8.02;;;;;;;;;;5097113;28;20048;-69
2023/02/10 10:33:24;;;;;;;39.63;10.13;;;;;;;;;;5080251;28;20461;-70
2023/02/10 10:35:50;;;;;;;27.33;9.95;;;;;;;;;;5077143;28;20098;-69
2023/02/10 10:38:21;;;;;;;21.35;7.78;;;;;;;;;;5096544;28;20118;-69
2023/02/10 10:40:49;;;;;;;23.30;7.03;;;;;;;;;;5076062;28;20060;-69
2023/02/10 10:43:20;;;;;;;33.83;11.13;;;;;;;;;;5097843;28;20483;-69
2023/02/10 10:45:49;;;;;;;33.60;8.35;;;;;;;;;;5093331;28;20040;-68
2023/02/10 10:48:18;;;;;;;24.73;7.47;;;;;;;;;;5096194;28;20040;-68
2023/02/10 10:50:45;;;;;;;28.98;7.75;;;;;;;;;;5097702;28;20143;-68
2023/02/10 10:53:15;;;;;;;28.10;8.20;;;;;;;;;;5080325;28;20496;-69
2023/02/10 10:55:44;;;;;;;25.15;7.68;;;;;;;;;;5098533;28;20131;-69
2023/02/10 10:58:16;;;;;;;26.73;7.78;;;;;;;;;;5098945;28;20086;-69
2023/02/10 11:00:50;;;;;;;37.28;8.30;;;;;;;;;;5099104;28;20051;-69
2023/02/10 11:03:17;;;;;;;27.15;8.07;;;;;;;;;;5081842;28;20043;-70
2023/02/10 11:05:55;;;;;;;24.55;6.97;;;;;;;;;;5099201;28;20076;-69
2023/02/10 11:08:24;;;;;;;22.35;6.60;;;;;;;;;;5070606;28;20043;-70
2023/02/10 11:10:53;;;;;;;31.65;6.90;;;;;;;;;;5090973;28;20100;-70
2023/02/10 11:13:21;;;;;;;24.42;6.20;;;;;;;;;;5078371;28;20069;-69
2023/02/10 11:15:48;;;;;;;28.42;6.32;;;;;;;;;;5092036;28;20045;-70
2023/02/10 11:18:18;;;;;;;29.88;8.45;;;;;;;;;;5081943;28;20423;-71
2023/02/10 11:20:53;;;;;;;27.38;5.90;;;;;;;;;;5077235;28;20047;-70
2023/02/10 11:23:19;;;;;;;24.27;6.07;;;;;;;;;;5091058;28;20043;-72
2023/02/10 11:25:47;;;;;;;27.92;6.40;;;;;;;;;;5097536;28;20043;-71
2023/02/10 11:28:19;;;;;;;17.27;5.93;;;;;;;;;;5076411;28;20081;-70
2023/02/10 11:30:47;;;;;;;29.40;6.50;;;;;;;;;;5095773;28;20108;-71
2023/02/10 11:33:21;;;;;;;23.00;6.70;;;;;;;;;;5075602;28;20420;-70
2023/02/10 11:35:49;;;;;;;27.90;5.95;;;;;;;;;;5099382;28;20096;-71
2023/02/10 11:38:19;;;;;;;25.45;6.43;;;;;;;;;;5078866;28;20039;-70
2023/02/10 11:40:49;;;;;;;22.13;5.43;;;;;;;;;;5098611;28;20204;-70
2023/02/10 11:43:16;;;;;;;21.70;5.55;;;;;;;;;;5100455;28;20094;-71
2023/02/10 11:45:52;;;;;;;25.25;4.90;;;;;;;;;;5102451;28;20043;-69
2023/02/10 11:48:20;;;;;;;28.88;5.57;;;;;;;;;;5099847;28;20032;-70
2023/02/10 11:50:46;;;;;;;28.40;5.95;;;;;;;;;;5079666;28;20052;-70
2023/02/10 11:53:23;;;;;;;23.73;5.45;;;;;;;;;;5104710;28;20032;-70
2023/02/10 11:55:56;;;;;;;24.67;5.20;;;;;;;;;;5081494;28;20520;-69
2023/02/10 12:01:27;;;;;;;16.23;4.05;;;;;;;;;;5100973;28;20039;-69
2023/02/10 12:03:59;;;;;;;25.17;5.18;;;;;;;;;;5088265;28;20166;-69
2023/02/10 12:06:28;;;;;;;22.63;3.95;;;;;;;;;;5087575;28;20097;-70
2023/02/10 12:09:03;;;;;;;18.08;3.88;;;;;;;;;;5097206;28;20054;-70
2023/02/10 12:11:32;;;;;;;23.63;4.97;;;;;;;;;;5081562;28;20530;-70
2023/02/10 12:14:07;;;;;;;14.55;4.35;;;;;;;;;;5081706;28;20047;-70
2023/02/10 12:16:42;;;;;;;17.13;3.85;;;;;;;;;;5064705;28;21769;-70
2023/02/10 12:19:13;;;;;;;21.70;3.85;;;;;;;;;;5079631;28;20440;-70
2023/02/10 12:21:51;;;;;;;19.38;3.97;;;;;;;;;;5076846;28;20522;-69
2023/02/10 12:24:26;;;;;;;20.58;3.80;;;;;;;;;;5081523;28;20495;-70
2023/02/10 12:26:55;;;;;;;22.30;3.95;;;;;;;;;;5079181;28;20154;-69
2023/02/10 12:29:29;;;;;;;21.95;3.88;;;;;;;;;;5100122;28;20039;-69
2023/02/10 12:31:55;;;;;;;;;;;;;;;;;;5097287;28;20050;-69
2023/02/10 12:34:30;;;;;;;13.68;3.33;;;;;;;;;;5077044;28;19920;-70
2023/02/10 12:36:57;;;;;;;21.55;4.28;;;;;;;;;;5100452;28;20039;-69
2023/02/10 12:39:28;;;;;;;18.85;3.67;;;;;;;;;;5098041;28;20504;-69
2023/02/10 12:41:56;;;;;;;15.10;3.10;;;;;;;;;;5099060;28;20553;-70
2023/02/10 12:44:22;;;;;;;15.00;3.38;;;;;;;;;;5095472;28;20074;-69
2023/02/10 12:46:54;;;;;;;15.95;3.22;;;;;;;;;;5095418;28;20047;-69
2023/02/10 12:49:21;;;;;;;20.40;3.45;;;;;;;;;;5079383;28;20130;-69
2023/02/10 12:51:53;;;;;;;17.33;3.33;;;;;;;;;;5095476;28;20047;-69
2023/02/10 12:54:23;;;;;;;15.32;4.03;;;;;;;;;;5082242;28;20084;-69
2023/02/10 12:56:52;;;;;;;19.40;3.78;;;;;;;;;;5097157;28;20035;-69
2023/02/10 12:59:46;;;;;;;15.82;3.97;;;;;;;;;;5082304;28;20036;-70
2023/02/10 13:02:16;;;;;;;21.10;3.95;;;;;;;;;;5096555;28;20079;-70
2023/02/10 13:04:45;;;;;;;15.98;3.80;;;;;;;;;;5099650;28;20043;-69
2023/02/10 13:07:24;;;;;;;14.02;3.47;;;;;;;;;;5106947;28;20556;-69
2023/02/10 13:09:54;;;;;;;11.43;3.22;;;;;;;;;;5081293;28;20040;-69
2023/02/10 13:12:22;;;;;;;9.55;2.70;;;;;;;;;;5087205;28;20075;-69
2023/02/10 13:14:50;;;;;;;16.83;3.10;;;;;;;;;;5100177;28;20035;-70
2023/02/10 13:17:16;;;;;;;15.77;2.83;;;;;;;;;;5095373;28;21448;-70
2023/02/10 13:19:50;;;;;;;18.73;3.63;;;;;;;;;;5100120;28;20051;-69
2023/02/10 13:22:20;;;;;;;21.45;4.85;;;;;;;;;;5101196;28;20566;-70
2023/02/10 13:24:51;;;;;;;14.02;2.80;;;;;;;;;;5102724;28;20184;-70
2023/02/10 13:27:32;;;;;;;17.52;4.20;;;;;;;;;;5101803;28;20110;-69
2023/02/10 13:30:11;;;;;;;12.80;2.72;;;;;;;;;;5097975;28;20088;-69
2023/02/10 13:32:45;;;;;;;13.55;3.13;;;;;;;;;;5102933;28;20047;-70
2023/02/10 13:35:15;;;;;;;21.42;4.38;;;;;;;;;;5102420;28;20043;-69
2023/02/10 13:37:43;;;;;;;16.33;3.10;;;;;;;;;;5097458;28;20443;-69
2023/02/10 13:40:17;;;;;;;15.02;3.63;;;;;;;;;;5095264;28;20407;-69
2023/02/10 13:42:56;;;;;;;17.40;3.25;;;;;;;;;;5096876;28;20051;-70
2023/02/10 13:45:24;;;;;;;16.90;3.40;;;;;;;;;;5094037;28;20122;-69
2023/02/10 13:47:52;;;;;;;20.52;3.55;;;;;;;;;;5094598;28;20040;-69
2023/02/10 13:50:21;;;;;;;17.88;3.60;;;;;;;;;;5096287;28;20044;-69
2023/02/10 13:52:50;;;;;;;19.50;3.78;;;;;;;;;;5097934;28;20067;-69
2023/02/10 13:55:16;;;;;;;17.50;3.47;;;;;;;;;;5079036;28;20060;-69
2023/02/10 13:58:05;;;;;;;11.80;3.05;;;;;;;;;;5079907;28;20036;-69
2023/02/10 14:00:44;;;;;;;15.02;3.42;;;;;;;;;;5089210;28;20385;-68
2023/02/10 14:03:10;;;;;;;15.50;3.90;;;;;;;;;;5097816;28;20127;-68
2023/02/10 14:05:38;;;;;;;15.70;3.17;;;;;;;;;;5097666;28;20174;-69
2023/02/10 14:08:15;;;;;;;14.63;3.28;;;;;;;;;;5101455;28;20038;-69
2023/02/10 14:10:41;;;;;;;19.05;3.80;;;;;;;;;;5101252;28;20555;-69
2023/02/10 14:13:22;;;;;;;15.05;3.47;;;;;;;;;;5104164;28;20479;-69
2023/02/10 14:16:00;;;;;;;18.92;3.75;;;;;;;;;;5096997;28;20039;-69
2023/02/10 14:18:28;;;;;;;21.80;3.78;;;;;;;;;;5100709;28;20518;-69
2023/02/10 14:20:56;;;;;;;17.23;4.65;;;;;;;;;;5100982;28;20074;-69
2023/02/10 14:23:23;;;;;;;12.00;3.10;;;;;;;;;;5083999;28;20055;-69
2023/02/10 14:25:55;;;;;;;15.55;3.80;;;;;;;;;;5099387;28;20048;-69
2023/02/10 14:28:22;;;;;;;11.23;3.00;;;;;;;;;;5101683;28;20090;-68
2023/02/10 14:30:52;;;;;;;19.80;4.05;;;;;;;;;;5103218;28;20039;-69
2023/02/10 14:33:27;;;;;;;16.50;3.78;;;;;;;;;;5097083;28;20063;-69
2023/02/10 14:35:55;;;;;;;17.60;4.00;;;;;;;;;;5093758;28;20108;-69
2023/02/10 14:38:24;;;;;;;18.92;5.93;;;;;;;;;;5099999;28;20149;-69